sensor_id;sensor_type;location;lat;lon;timestamp;pressure;altitude;pressure_sealevel;temperature;humidity
6032;BME280;3044;43.232;27.972;2023-10-13T00:00:20;45130.94;;;-143.84;74.36
6032;BME280;3044;43.232;27.972;2023-10-13T00:03:04;45087.16;;;-143.84;73.81
6032;BME280;3044;43.232;27.972;2023-10-13T00:05:38;45094.78;;;-143.84;73.36
6032;BME280;3044;43.232;27.972;2023-10-13T00:08:09;45090.97;;;-143.84;73.42
6032;BME280;3044;43.232;27.972;2023-10-13T00:10:40;45092.88;;;-143.84;73.31
6032;BME280;3044;43.232;27.972;2023-10-13T00:13:07;45090.97;;;-143.84;73.34
6032;BME280;3044;43.232;27.972;2023-10-13T00:15:39;45106.19;;;-143.84;73.03
6032;BME280;3044;43.232;27.972;2023-10-13T00:18:11;45062.41;;;-143.84;72.56
6032;BME280;3044;43.232;27.972;2023-10-13T00:20:44;45060.50;;;-143.84;72.50
6032;BME280;3044;43.232;27.972;2023-10-13T00:23:16;45081.44;;;-143.84;72.28
6032;BME280;3044;43.232;27.972;2023-10-13T00:25:47;45073.81;;;-143.84;71.50
6032;BME280;3044;43.232;27.972;2023-10-13T00:28:23;45092.88;;;-143.84;70.94
6032;BME280;3044;43.232;27.972;2023-10-13T00:30:52;45077.63;;;-143.84;70.85
6032;BME280;3044;43.232;27.972;2023-10-13T00:33:26;45087.16;;;-143.84;70.49
6032;BME280;3044;43.232;27.972;2023-10-13T00:35:55;45083.34;;;-143.84;70.32
6032;BME280;3044;43.232;27.972;2023-10-13T00:38:23;45110.00;;;-143.84;70.29
6032;BME280;3044;43.232;27.972;2023-10-13T00:40:53;45098.56;;;-143.84;70.02
6032;BME280;3044;43.232;27.972;2023-10-13T00:43:21;45066.22;;;-143.84;69.40
6032;BME280;3044;43.232;27.972;2023-10-13T00:46:01;45090.97;;;-143.84;69.14
6032;BME280;3044;43.232;27.972;2023-10-13T00:48:40;45090.97;;;-143.84;68.84
6032;BME280;3044;43.232;27.972;2023-10-13T00:51:19;45083.34;;;-143.84;68.58
6032;BME280;3044;43.232;27.972;2023-10-13T00:53:59;45089.06;;;-143.84;68.76
6032;BME280;3044;43.232;27.972;2023-10-13T00:56:27;45079.53;;;-143.84;69.11
6032;BME280;3044;43.232;27.972;2023-10-13T00:58:56;45090.97;;;-143.84;69.26
6032;BME280;3044;43.232;27.972;2023-10-13T01:01:28;45092.88;;;-143.84;69.12
6032;BME280;3044;43.232;27.972;2023-10-13T01:03:59;45089.06;;;-143.84;69.48
6032;BME280;3044;43.232;27.972;2023-10-13T01:06:27;45106.19;;;-143.84;69.43
6032;BME280;3044;43.232;27.972;2023-10-13T01:08:58;45094.78;;;-143.84;69.47
6032;BME280;3044;43.232;27.972;2023-10-13T01:11:36;45087.16;;;-143.84;69.44
6032;BME280;3044;43.232;27.972;2023-10-13T01:14:03;45094.78;;;-143.84;69.35
6032;BME280;3044;43.232;27.972;2023-10-13T01:16:31;45098.56;;;-143.84;69.17
6032;BME280;3044;43.232;27.972;2023-10-13T01:18:58;45079.53;;;-143.84;68.90
6032;BME280;3044;43.232;27.972;2023-10-13T01:21:27;45062.41;;;-143.84;68.99
6032;BME280;3044;43.232;27.972;2023-10-13T01:23:56;45079.53;;;-143.84;69.46
6032;BME280;3044;43.232;27.972;2023-10-13T01:26:22;45110.00;;;-143.84;69.92
6032;BME280;3044;43.232;27.972;2023-10-13T01:28:56;45081.44;;;-143.84;70.28
6032;BME280;3044;43.232;27.972;2023-10-13T01:31:22;45081.44;;;-143.84;70.10
6032;BME280;3044;43.232;27.972;2023-10-13T01:33:54;45096.66;;;-143.84;69.86
6032;BME280;3044;43.232;27.972;2023-10-13T01:36:24;45098.56;;;-143.84;69.46
6032;BME280;3044;43.232;27.972;2023-10-13T01:38:52;45081.44;;;-143.84;69.46
6032;BME280;3044;43.232;27.972;2023-10-13T01:41:20;45054.78;;;-143.84;69.09
6032;BME280;3044;43.232;27.972;2023-10-13T01:43:48;45073.81;;;-143.84;68.98
6032;BME280;3044;43.232;27.972;2023-10-13T01:46:14;45096.66;;;-143.84;68.65
6032;BME280;3044;43.232;27.972;2023-10-13T01:48:45;45110.00;;;-143.84;68.40
6032;BME280;3044;43.232;27.972;2023-10-13T01:51:12;45102.38;;;-143.84;68.09
6032;BME280;3044;43.232;27.972;2023-10-13T01:53:40;45098.56;;;-143.84;67.87
6032;BME280;3044;43.232;27.972;2023-10-13T01:56:07;45083.34;;;-143.84;67.49
6032;BME280;3044;43.232;27.972;2023-10-13T01:58:39;45079.53;;;-143.84;67.31
6032;BME280;3044;43.232;27.972;2023-10-13T02:01:08;45106.19;;;-143.84;67.11
6032;BME280;3044;43.232;27.972;2023-10-13T02:03:36;45056.69;;;-143.84;66.64
6032;BME280;3044;43.232;27.972;2023-10-13T02:06:11;45102.38;;;-143.84;65.68
6032;BME280;3044;43.232;27.972;2023-10-13T02:08:43;45075.72;;;-143.84;65.18
6032;BME280;3044;43.232;27.972;2023-10-13T02:11:12;45077.63;;;-143.84;64.70
6032;BME280;3044;43.232;27.972;2023-10-13T02:13:45;45102.38;;;-143.84;64.48
6032;BME280;3044;43.232;27.972;2023-10-13T02:16:15;45098.56;;;-143.84;64.27
6032;BME280;3044;43.232;27.972;2023-10-13T02:18:47;45098.56;;;-143.84;64.46
6032;BME280;3044;43.232;27.972;2023-10-13T02:21:17;45102.38;;;-143.84;64.52
6032;BME280;3044;43.232;27.972;2023-10-13T02:23:45;45089.06;;;-143.84;63.83
6032;BME280;3044;43.232;27.972;2023-10-13T02:26:11;45092.88;;;-143.84;63.81
6032;BME280;3044;43.232;27.972;2023-10-13T02:28:41;45102.38;;;-143.84;63.76
6032;BME280;3044;43.232;27.972;2023-10-13T02:31:08;45096.66;;;-143.84;64.25
6032;BME280;3044;43.232;27.972;2023-10-13T02:33:37;45094.78;;;-143.84;63.80
6032;BME280;3044;43.232;27.972;2023-10-13T02:36:10;45081.44;;;-143.84;63.54
6032;BME280;3044;43.232;27.972;2023-10-13T02:38:38;45096.66;;;-143.84;63.23
6032;BME280;3044;43.232;27.972;2023-10-13T02:41:12;45085.25;;;-143.84;62.63
6032;BME280;3044;43.232;27.972;2023-10-13T02:43:45;45089.06;;;-143.84;62.63
6032;BME280;3044;43.232;27.972;2023-10-13T02:46:12;45071.91;;;-143.84;62.57
6032;BME280;3044;43.232;27.972;2023-10-13T02:48:41;45087.16;;;-143.84;62.78
6032;BME280;3044;43.232;27.972;2023-10-13T02:51:12;45102.38;;;-143.84;62.75
6032;BME280;3044;43.232;27.972;2023-10-13T02:53:51;45079.53;;;-143.84;62.86
6032;BME280;3044;43.232;27.972;2023-10-13T02:56:18;45073.81;;;-143.84;62.95
6032;BME280;3044;43.232;27.972;2023-10-13T02:58:47;45075.72;;;-143.84;62.89
6032;BME280;3044;43.232;27.972;2023-10-13T03:01:20;45090.97;;;-143.84;63.06
6032;BME280;3044;43.232;27.972;2023-10-13T03:03:55;45089.06;;;-143.84;62.87
6032;BME280;3044;43.232;27.972;2023-10-13T03:06:23;45085.25;;;-143.84;62.63
6032;BME280;3044;43.232;27.972;2023-10-13T03:08:58;45081.44;;;-143.84;62.07
6032;BME280;3044;43.232;27.972;2023-10-13T03:11:29;45096.66;;;-143.84;61.57
6032;BME280;3044;43.232;27.972;2023-10-13T03:13:59;45108.09;;;-143.84;60.64
6032;BME280;3044;43.232;27.972;2023-10-13T03:16:33;45071.91;;;-143.84;60.58
6032;BME280;3044;43.232;27.972;2023-10-13T03:19:00;45102.38;;;-143.84;59.61
6032;BME280;3044;43.232;27.972;2023-10-13T03:21:33;45085.25;;;-143.84;59.70
6032;BME280;3044;43.232;27.972;2023-10-13T03:24:02;45083.34;;;-143.84;58.58
6032;BME280;3044;43.232;27.972;2023-10-13T03:26:32;45108.09;;;-143.84;58.02
6032;BME280;3044;43.232;27.972;2023-10-13T03:29:03;45068.13;;;-143.84;58.22
6032;BME280;3044;43.232;27.972;2023-10-13T03:31:40;45100.47;;;-143.84;58.33
6032;BME280;3044;43.232;27.972;2023-10-13T03:34:11;45077.63;;;-143.84;57.94
6032;BME280;3044;43.232;27.972;2023-10-13T03:36:38;45083.34;;;-143.84;57.85
6032;BME280;3044;43.232;27.972;2023-10-13T03:39:24;45089.06;;;-143.84;57.53
6032;BME280;3044;43.232;27.972;2023-10-13T03:41:58;45094.78;;;-143.84;56.20
6032;BME280;3044;43.232;27.972;2023-10-13T03:44:25;45090.97;;;-143.84;55.48
6032;BME280;3044;43.232;27.972;2023-10-13T03:46:57;45085.25;;;-143.84;53.59
6032;BME280;3044;43.232;27.972;2023-10-13T03:49:44;45068.13;;;-143.84;53.72
6032;BME280;3044;43.232;27.972;2023-10-13T03:52:11;45075.72;;;-143.84;52.66
6032;BME280;3044;43.232;27.972;2023-10-13T03:54:39;45089.06;;;-143.84;52.87
6032;BME280;3044;43.232;27.972;2023-10-13T03:57:07;45068.13;;;-143.84;51.87
6032;BME280;3044;43.232;27.972;2023-10-13T03:59:37;45098.56;;;-143.84;51.93
6032;BME280;3044;43.232;27.972;2023-10-13T04:02:06;45089.06;;;-143.84;51.33
6032;BME280;3044;43.232;27.972;2023-10-13T04:04:44;45094.78;;;-143.84;51.16
6032;BME280;3044;43.232;27.972;2023-10-13T04:07:15;45075.72;;;-143.84;50.82
6032;BME280;3044;43.232;27.972;2023-10-13T04:09:59;45102.38;;;-143.84;50.99
6032;BME280;3044;43.232;27.972;2023-10-13T04:12:44;45081.44;;;-143.84;50.93
6032;BME280;3044;43.232;27.972;2023-10-13T04:15:24;45081.44;;;-143.84;50.01
6032;BME280;3044;43.232;27.972;2023-10-13T04:18:04;45073.81;;;-143.84;50.33
6032;BME280;3044;43.232;27.972;2023-10-13T04:20:44;45081.44;;;-143.84;50.03
6032;BME280;3044;43.232;27.972;2023-10-13T04:23:12;45081.44;;;-143.84;50.01
6032;BME280;3044;43.232;27.972;2023-10-13T04:25:45;45081.44;;;-143.84;50.25
6032;BME280;3044;43.232;27.972;2023-10-13T04:28:28;45090.97;;;-143.84;50.32
6032;BME280;3044;43.232;27.972;2023-10-13T04:31:03;45079.53;;;-143.84;49.79
6032;BME280;3044;43.232;27.972;2023-10-13T04:33:51;45096.66;;;-143.84;50.09
6032;BME280;3044;43.232;27.972;2023-10-13T04:36:18;45089.06;;;-143.84;49.96
6032;BME280;3044;43.232;27.972;2023-10-13T04:39:03;45077.63;;;-143.84;50.14
6032;BME280;3044;43.232;27.972;2023-10-13T04:41:42;45070.00;;;-143.84;50.25
6032;BME280;3044;43.232;27.972;2023-10-13T04:44:23;45092.88;;;-143.84;50.13
6032;BME280;3044;43.232;27.972;2023-10-13T04:47:05;45102.38;;;-143.84;50.63
6032;BME280;3044;43.232;27.972;2023-10-13T04:49:39;45083.34;;;-143.84;49.59
6032;BME280;3044;43.232;27.972;2023-10-13T04:52:20;45094.78;;;-143.84;49.57
6032;BME280;3044;43.232;27.972;2023-10-13T04:55:26;45092.88;;;-143.84;49.52
6032;BME280;3044;43.232;27.972;2023-10-13T04:58:09;45079.53;;;-143.84;49.71
6032;BME280;3044;43.232;27.972;2023-10-13T05:01:01;45081.44;;;-143.84;50.11
6032;BME280;3044;43.232;27.972;2023-10-13T05:04:05;45094.78;;;-143.84;49.98
6032;BME280;3044;43.232;27.972;2023-10-13T05:06:57;45087.16;;;-143.84;50.36
6032;BME280;3044;43.232;27.972;2023-10-13T05:09:41;45071.91;;;-143.84;51.16
6032;BME280;3044;43.232;27.972;2023-10-13T05:12:25;45066.22;;;-143.84;51.24
6032;BME280;3044;43.232;27.972;2023-10-13T05:15:10;45092.88;;;-143.84;51.04
6032;BME280;3044;43.232;27.972;2023-10-13T05:17:54;45077.63;;;-143.84;51.66
6032;BME280;3044;43.232;27.972;2023-10-13T05:20:39;45054.78;;;-143.84;52.39
6032;BME280;3044;43.232;27.972;2023-10-13T05:23:25;45068.13;;;-143.84;50.30
6032;BME280;3044;43.232;27.972;2023-10-13T05:26:10;45064.31;;;-143.84;48.73
6032;BME280;3044;43.232;27.972;2023-10-13T05:28:54;45062.41;;;-143.84;48.61
6032;BME280;3044;43.232;27.972;2023-10-13T05:31:38;45054.78;;;-143.84;48.13
6032;BME280;3044;43.232;27.972;2023-10-13T05:34:23;45079.53;;;-143.84;48.62
6032;BME280;3044;43.232;27.972;2023-10-13T05:37:06;45049.06;;;-143.84;47.56
6032;BME280;3044;43.232;27.972;2023-10-13T05:39:52;45030.03;;;-143.84;48.17
6032;BME280;3044;43.232;27.972;2023-10-13T05:42:36;45052.88;;;-143.84;47.20
6032;BME280;3044;43.232;27.972;2023-10-13T05:45:21;45049.06;;;-143.84;44.97
6032;BME280;3044;43.232;27.972;2023-10-13T05:48:06;45037.66;;;-143.84;43.52
6032;BME280;3044;43.232;27.972;2023-10-13T05:50:39;45049.06;;;-143.84;41.70
6032;BME280;3044;43.232;27.972;2023-10-13T05:53:26;45028.13;;;-143.84;42.03
6032;BME280;3044;43.232;27.972;2023-10-13T05:56:12;45035.75;;;-143.84;42.52
6032;BME280;3044;43.232;27.972;2023-10-13T05:58:56;45045.25;;;-143.84;42.50
6032;BME280;3044;43.232;27.972;2023-10-13T06:01:40;45039.53;;;-143.84;41.06
6032;BME280;3044;43.232;27.972;2023-10-13T06:04:25;45014.78;;;-143.84;40.63
6032;BME280;3044;43.232;27.972;2023-10-13T06:07:09;45014.78;;;-143.84;39.55
6032;BME280;3044;43.232;27.972;2023-10-13T06:09:54;45033.84;;;-143.84;37.99
6032;BME280;3044;43.232;27.972;2023-10-13T06:12:39;45007.19;;;-143.84;38.10
6032;BME280;3044;43.232;27.972;2023-10-13T06:15:24;44999.56;;;-143.84;38.13
6032;BME280;3044;43.232;27.972;2023-10-13T06:18:09;44993.84;;;-143.84;37.92
6032;BME280;3044;43.232;27.972;2023-10-13T06:20:53;45009.09;;;-143.84;37.96
6032;BME280;3044;43.232;27.972;2023-10-13T06:23:37;44999.56;;;-143.84;37.80
6032;BME280;3044;43.232;27.972;2023-10-13T06:26:22;45022.41;;;-143.84;38.56
6032;BME280;3044;43.232;27.972;2023-10-13T06:29:08;45007.19;;;-143.84;37.70
6032;BME280;3044;43.232;27.972;2023-10-13T06:31:35;45007.19;;;-143.84;37.64
6032;BME280;3044;43.232;27.972;2023-10-13T06:34:03;45001.47;;;-143.84;38.75
6032;BME280;3044;43.232;27.972;2023-10-13T06:36:30;45007.19;;;-143.84;38.43
6032;BME280;3044;43.232;27.972;2023-10-13T06:38:58;45014.78;;;-143.84;37.81
6032;BME280;3044;43.232;27.972;2023-10-13T06:41:39;44997.66;;;-143.84;38.75
6032;BME280;3044;43.232;27.972;2023-10-13T06:44:08;45014.78;;;-143.84;37.26
6032;BME280;3044;43.232;27.972;2023-10-13T06:46:41;44991.94;;;-143.84;37.17
6032;BME280;3044;43.232;27.972;2023-10-13T06:49:10;44988.13;;;-143.84;37.70
6032;BME280;3044;43.232;27.972;2023-10-13T06:51:38;45003.38;;;-143.84;37.18
6032;BME280;3044;43.232;27.972;2023-10-13T06:54:06;45001.47;;;-143.84;36.97
6032;BME280;3044;43.232;27.972;2023-10-13T06:56:44;45003.38;;;-143.84;37.43
6032;BME280;3044;43.232;27.972;2023-10-13T06:59:13;44999.56;;;-143.84;38.13
6032;BME280;3044;43.232;27.972;2023-10-13T07:01:40;45014.78;;;-143.84;38.62
6032;BME280;3044;43.232;27.972;2023-10-13T07:04:08;45001.47;;;-143.84;38.74
6032;BME280;3044;43.232;27.972;2023-10-13T07:06:40;44999.56;;;-143.84;39.60
6032;BME280;3044;43.232;27.972;2023-10-13T07:09:14;45003.38;;;-143.84;38.51
6032;BME280;3044;43.232;27.972;2023-10-13T07:12:03;44995.75;;;-143.84;38.00
6032;BME280;3044;43.232;27.972;2023-10-13T07:14:34;44971.00;;;-143.84;38.10
6032;BME280;3044;43.232;27.972;2023-10-13T07:17:04;44972.91;;;-143.84;37.90
6032;BME280;3044;43.232;27.972;2023-10-13T07:19:31;44993.84;;;-143.84;38.51
6032;BME280;3044;43.232;27.972;2023-10-13T07:22:00;44986.22;;;-143.84;37.67
6032;BME280;3044;43.232;27.972;2023-10-13T07:24:44;44991.94;;;-143.84;38.43
6032;BME280;3044;43.232;27.972;2023-10-13T07:27:14;44984.31;;;-143.84;36.99
6032;BME280;3044;43.232;27.972;2023-10-13T07:29:50;44963.38;;;-143.84;37.09
6032;BME280;3044;43.232;27.972;2023-10-13T07:32:31;44991.94;;;-143.84;37.47
6032;BME280;3044;43.232;27.972;2023-10-13T07:34:59;44997.66;;;-143.84;36.57
6032;BME280;3044;43.232;27.972;2023-10-13T07:37:37;44967.19;;;-143.84;36.90
6032;BME280;3044;43.232;27.972;2023-10-13T07:40:08;44991.94;;;-143.84;37.01
6032;BME280;3044;43.232;27.972;2023-10-13T07:42:56;44971.00;;;-143.84;36.89
6032;BME280;3044;43.232;27.972;2023-10-13T07:45:28;44993.84;;;-143.84;35.85
6032;BME280;3044;43.232;27.972;2023-10-13T07:48:01;44982.41;;;-143.84;36.84
6032;BME280;3044;43.232;27.972;2023-10-13T07:50:33;44995.75;;;-143.84;36.87
6032;BME280;3044;43.232;27.972;2023-10-13T07:53:01;44999.56;;;-143.84;36.74
6032;BME280;3044;43.232;27.972;2023-10-13T07:55:40;44974.81;;;-143.84;36.30
6032;BME280;3044;43.232;27.972;2023-10-13T07:58:07;44980.53;;;-143.84;36.72
6032;BME280;3044;43.232;27.972;2023-10-13T08:00:36;45005.28;;;-143.84;37.18
6032;BME280;3044;43.232;27.972;2023-10-13T08:03:12;44980.53;;;-143.84;36.42
6032;BME280;3044;43.232;27.972;2023-10-13T08:05:57;44993.84;;;-143.84;35.88
6032;BME280;3044;43.232;27.972;2023-10-13T08:08:30;44986.22;;;-143.84;34.73
6032;BME280;3044;43.232;27.972;2023-10-13T08:11:03;44951.97;;;-143.84;34.86
6032;BME280;3044;43.232;27.972;2023-10-13T08:13:38;44995.75;;;-143.84;34.21
6032;BME280;3044;43.232;27.972;2023-10-13T08:16:13;44993.84;;;-143.84;34.85
6032;BME280;3044;43.232;27.972;2023-10-13T08:18:46;44984.31;;;-143.84;34.22
6032;BME280;3044;43.232;27.972;2023-10-13T08:21:14;44986.22;;;-143.84;36.34
6032;BME280;3044;43.232;27.972;2023-10-13T08:23:45;44972.91;;;-143.84;34.30
6032;BME280;3044;43.232;27.972;2023-10-13T08:26:31;44951.97;;;-143.84;34.48
6032;BME280;3044;43.232;27.972;2023-10-13T08:29:12;44972.91;;;-143.84;33.97
6032;BME280;3044;43.232;27.972;2023-10-13T08:31:58;44980.53;;;-143.84;33.14
6032;BME280;3044;43.232;27.972;2023-10-13T08:34:47;44963.38;;;-143.84;33.27
6032;BME280;3044;43.232;27.972;2023-10-13T08:37:36;44971.00;;;-143.84;33.08
6032;BME280;3044;43.232;27.972;2023-10-13T08:40:26;44976.72;;;-143.84;33.08
6032;BME280;3044;43.232;27.972;2023-10-13T08:43:24;44950.06;;;-143.84;33.03
6032;BME280;3044;43.232;27.972;2023-10-13T08:46:06;44961.47;;;-143.84;33.01
6032;BME280;3044;43.232;27.972;2023-10-13T08:48:37;44950.06;;;-143.84;32.98
6032;BME280;3044;43.232;27.972;2023-10-13T08:51:04;44986.22;;;-143.84;32.81
6032;BME280;3044;43.232;27.972;2023-10-13T08:53:37;44965.28;;;-143.84;33.08
6032;BME280;3044;43.232;27.972;2023-10-13T08:56:18;44991.94;;;-143.84;32.78
6032;BME280;3044;43.232;27.972;2023-10-13T08:58:57;44961.47;;;-143.84;32.89
6032;BME280;3044;43.232;27.972;2023-10-13T09:01:36;44946.25;;;-143.84;32.18
6032;BME280;3044;43.232;27.972;2023-10-13T09:04:13;44946.25;;;-143.84;32.15
6032;BME280;3044;43.232;27.972;2023-10-13T09:06:54;44965.28;;;-143.84;33.50
6032;BME280;3044;43.232;27.972;2023-10-13T09:09:34;44965.28;;;-143.84;33.17
6032;BME280;3044;43.232;27.972;2023-10-13T09:12:26;44950.06;;;-143.84;33.60
6032;BME280;3044;43.232;27.972;2023-10-13T09:15:02;44974.81;;;-143.84;34.88
6032;BME280;3044;43.232;27.972;2023-10-13T09:17:31;45024.31;;;-143.84;34.45
6032;BME280;3044;43.232;27.972;2023-10-13T09:20:04;44988.13;;;-143.84;35.17
6032;BME280;3044;43.232;27.972;2023-10-13T09:23:08;44967.19;;;-143.84;35.55
6032;BME280;3044;43.232;27.972;2023-10-13T09:25:38;44969.09;;;-143.84;35.10
6032;BME280;3044;43.232;27.972;2023-10-13T09:28:20;44974.81;;;-143.84;34.05
6032;BME280;3044;43.232;27.972;2023-10-13T09:30:52;44971.00;;;-143.84;34.80
6032;BME280;3044;43.232;27.972;2023-10-13T09:33:20;44969.09;;;-143.84;35.08
6032;BME280;3044;43.232;27.972;2023-10-13T09:35:54;44976.72;;;-143.84;34.69
6032;BME280;3044;43.232;27.972;2023-10-13T09:38:21;44995.75;;;-143.84;35.80
6032;BME280;3044;43.232;27.972;2023-10-13T09:40:49;44980.53;;;-143.84;35.54
6032;BME280;3044;43.232;27.972;2023-10-13T09:43:18;44969.09;;;-143.84;34.22
6032;BME280;3044;43.232;27.972;2023-10-13T09:45:48;44988.13;;;-143.84;33.51
6032;BME280;3044;43.232;27.972;2023-10-13T09:48:32;44993.84;;;-143.84;35.21
6032;BME280;3044;43.232;27.972;2023-10-13T09:51:02;44995.75;;;-143.84;34.01
6032;BME280;3044;43.232;27.972;2023-10-13T09:53:31;45001.47;;;-143.84;34.26
6032;BME280;3044;43.232;27.972;2023-10-13T09:56:03;44976.72;;;-143.84;33.34
6032;BME280;3044;43.232;27.972;2023-10-13T09:58:41;44976.72;;;-143.84;33.43
6032;BME280;3044;43.232;27.972;2023-10-13T10:01:14;44963.38;;;-143.84;32.89
6032;BME280;3044;43.232;27.972;2023-10-13T10:03:47;44955.75;;;-143.84;34.10
6032;BME280;3044;43.232;27.972;2023-10-13T10:06:33;44982.41;;;-143.84;33.60
6032;BME280;3044;43.232;27.972;2023-10-13T10:09:11;44980.53;;;-143.84;33.40
6032;BME280;3044;43.232;27.972;2023-10-13T10:12:04;44961.47;;;-143.84;33.31
6032;BME280;3044;43.232;27.972;2023-10-13T10:14:56;44950.06;;;-143.84;33.97
6032;BME280;3044;43.232;27.972;2023-10-13T10:17:27;44991.94;;;-143.84;35.50
6032;BME280;3044;43.232;27.972;2023-10-13T10:19:58;44976.72;;;-143.84;35.48
6032;BME280;3044;43.232;27.972;2023-10-13T10:22:32;44951.97;;;-143.84;35.81
6032;BME280;3044;43.232;27.972;2023-10-13T10:25:04;44980.53;;;-143.84;38.01
6032;BME280;3044;43.232;27.972;2023-10-13T10:27:54;44986.22;;;-143.84;39.86
6032;BME280;3044;43.232;27.972;2023-10-13T10:30:24;45016.69;;;-143.84;39.51
6032;BME280;3044;43.232;27.972;2023-10-13T10:32:54;44986.22;;;-143.84;40.00
6032;BME280;3044;43.232;27.972;2023-10-13T10:35:25;45001.47;;;-143.84;40.17
6032;BME280;3044;43.232;27.972;2023-10-13T10:37:56;44984.31;;;-143.84;40.28
6032;BME280;3044;43.232;27.972;2023-10-13T10:40:48;45003.38;;;-143.84;41.08
6032;BME280;3044;43.232;27.972;2023-10-13T10:43:17;45010.97;;;-143.84;38.85
6032;BME280;3044;43.232;27.972;2023-10-13T10:45:47;44988.13;;;-143.84;38.29
6032;BME280;3044;43.232;27.972;2023-10-13T10:48:16;45001.47;;;-143.84;38.94
6032;BME280;3044;43.232;27.972;2023-10-13T10:50:44;44980.53;;;-143.84;38.50
6032;BME280;3044;43.232;27.972;2023-10-13T10:53:19;45001.47;;;-143.84;38.33
6032;BME280;3044;43.232;27.972;2023-10-13T10:55:49;45003.38;;;-143.84;37.40
6032;BME280;3044;43.232;27.972;2023-10-13T10:58:16;45007.19;;;-143.84;36.93
6032;BME280;3044;43.232;27.972;2023-10-13T11:01:09;45009.09;;;-143.84;36.99
6032;BME280;3044;43.232;27.972;2023-10-13T11:03:38;44969.09;;;-143.84;36.96
6032;BME280;3044;43.232;27.972;2023-10-13T11:06:12;44978.63;;;-143.84;37.89
6032;BME280;3044;43.232;27.972;2023-10-13T11:08:43;44971.00;;;-143.84;37.55
6032;BME280;3044;43.232;27.972;2023-10-13T11:11:28;44971.00;;;-143.84;37.75
6032;BME280;3044;43.232;27.972;2023-10-13T11:14:00;44988.13;;;-143.84;38.92
6032;BME280;3044;43.232;27.972;2023-10-13T11:16:45;44990.03;;;-143.84;39.30
6032;BME280;3044;43.232;27.972;2023-10-13T11:19:17;44976.72;;;-143.84;38.75
6032;BME280;3044;43.232;27.972;2023-10-13T11:21:52;45007.19;;;-143.84;39.00
6032;BME280;3044;43.232;27.972;2023-10-13T11:24:19;44986.22;;;-143.84;38.60
6032;BME280;3044;43.232;27.972;2023-10-13T11:26:49;44990.03;;;-143.84;38.20
6032;BME280;3044;43.232;27.972;2023-10-13T11:29:17;44988.13;;;-143.84;39.56
6032;BME280;3044;43.232;27.972;2023-10-13T11:31:48;44988.13;;;-143.84;38.85
6032;BME280;3044;43.232;27.972;2023-10-13T11:34:24;44991.94;;;-143.84;38.07
6032;BME280;3044;43.232;27.972;2023-10-13T11:36:51;44995.75;;;-143.84;38.61
6032;BME280;3044;43.232;27.972;2023-10-13T11:39:18;45003.38;;;-143.84;37.58
6032;BME280;3044;43.232;27.972;2023-10-13T11:41:51;45007.19;;;-143.84;39.56
6032;BME280;3044;43.232;27.972;2023-10-13T11:44:21;45003.38;;;-143.84;39.41
6032;BME280;3044;43.232;27.972;2023-10-13T11:46:57;45003.38;;;-143.84;38.69
6032;BME280;3044;43.232;27.972;2023-10-13T11:49:33;44990.03;;;-143.84;38.63
6032;BME280;3044;43.232;27.972;2023-10-13T11:52:03;45001.47;;;-143.84;39.55
6032;BME280;3044;43.232;27.972;2023-10-13T11:54:44;44988.13;;;-143.84;40.03
6032;BME280;3044;43.232;27.972;2023-10-13T11:57:14;45009.09;;;-143.84;40.64
6032;BME280;3044;43.232;27.972;2023-10-13T11:59:44;45005.28;;;-143.84;40.86
6032;BME280;3044;43.232;27.972;2023-10-13T12:02:20;44980.53;;;-143.84;39.54
6032;BME280;3044;43.232;27.972;2023-10-13T12:05:05;44999.56;;;-143.84;40.10
6032;BME280;3044;43.232;27.972;2023-10-13T12:07:38;45018.59;;;-143.84;40.63
6032;BME280;3044;43.232;27.972;2023-10-13T12:10:17;44999.56;;;-143.84;40.84
6032;BME280;3044;43.232;27.972;2023-10-13T12:13:06;45001.47;;;-143.84;39.99
6032;BME280;3044;43.232;27.972;2023-10-13T12:15:36;45009.09;;;-143.84;40.06
6032;BME280;3044;43.232;27.972;2023-10-13T12:18:17;45007.19;;;-143.84;39.29
6032;BME280;3044;43.232;27.972;2023-10-13T12:20:45;45010.97;;;-143.84;38.95
6032;BME280;3044;43.232;27.972;2023-10-13T12:23:13;44991.94;;;-143.84;39.92
6032;BME280;3044;43.232;27.972;2023-10-13T12:25:46;44993.84;;;-143.84;40.11
6032;BME280;3044;43.232;27.972;2023-10-13T12:28:27;45018.59;;;-143.84;41.42
6032;BME280;3044;43.232;27.972;2023-10-13T12:31:03;45003.38;;;-143.84;40.91
6032;BME280;3044;43.232;27.972;2023-10-13T12:33:34;45014.78;;;-143.84;40.65
6032;BME280;3044;43.232;27.972;2023-10-13T12:36:06;45028.13;;;-143.84;42.88
6032;BME280;3044;43.232;27.972;2023-10-13T12:38:35;45014.78;;;-143.84;41.82
6032;BME280;3044;43.232;27.972;2023-10-13T12:41:32;44999.56;;;-143.84;43.02
6032;BME280;3044;43.232;27.972;2023-10-13T12:44:18;45009.09;;;-143.84;43.70
6032;BME280;3044;43.232;27.972;2023-10-13T12:47:02;45010.97;;;-143.84;42.46
6032;BME280;3044;43.232;27.972;2023-10-13T12:49:47;45005.28;;;-143.84;44.67
6032;BME280;3044;43.232;27.972;2023-10-13T12:52:23;45007.19;;;-143.84;45.01
6032;BME280;3044;43.232;27.972;2023-10-13T12:54:52;44991.94;;;-143.84;45.45
6032;BME280;3044;43.232;27.972;2023-10-13T12:57:32;45003.38;;;-143.84;45.01
6032;BME280;3044;43.232;27.972;2023-10-13T13:00:01;45010.97;;;-143.84;45.21
6032;BME280;3044;43.232;27.972;2023-10-13T13:02:42;45001.47;;;-143.84;45.55
6032;BME280;3044;43.232;27.972;2023-10-13T13:05:09;45001.47;;;-143.84;46.14
6032;BME280;3044;43.232;27.972;2023-10-13T13:07:39;45031.94;;;-143.84;45.81
6032;BME280;3044;43.232;27.972;2023-10-13T13:10:12;45014.78;;;-143.84;47.01
6032;BME280;3044;43.232;27.972;2023-10-13T13:12:39;45010.97;;;-143.84;45.58
6032;BME280;3044;43.232;27.972;2023-10-13T13:15:09;44993.84;;;-143.84;45.72
6032;BME280;3044;43.232;27.972;2023-10-13T13:17:37;45018.59;;;-143.84;44.55
6032;BME280;3044;43.232;27.972;2023-10-13T13:20:06;44999.56;;;-143.84;45.33
6032;BME280;3044;43.232;27.972;2023-10-13T13:22:51;45001.47;;;-143.84;45.52
6032;BME280;3044;43.232;27.972;2023-10-13T13:25:19;44995.75;;;-143.84;45.89
6032;BME280;3044;43.232;27.972;2023-10-13T13:27:51;45014.78;;;-143.84;46.03
6032;BME280;3044;43.232;27.972;2023-10-13T13:30:20;45010.97;;;-143.84;45.69